SHMÚ vydal meteorologické výstrahy na Wind Display warnings

TAF

Aerodrome Forecast TAF

TAF description (Slovak)

25.03.2017 - 11:00 UTC

TAF LZIB 251100Z 2512/2612 32006KT CAVOK
    TEMPO 2512/2514 02008KT
    BECMG 2607/2609 36012KT=
TAF LZKZ 251100Z 2512/2612 02014KT CAVOK
    TEMPO 2514/2519 35008KT
    TEMPO 2523/2612 01015G28KT 9999 FEW040 SCT080=
TAF LZTT 251100Z 2512/2612 27006KT CAVOK
    TEMPO 2512/2515 13010KT 9999 SCT045
    BECMG 2600/2602 05012KT=

25.03.2017 - 11:00 UTC

TAF LZSL 251100Z 2512/2521 33006KT 9999 SCT045=
TAF LZPP 251100Z 2512/2521 02006KT CAVOK
    TEMPO 2512/2515 01010G20KT=
TAF LZZI 251100Z 2512/2521 03008KT 9999 SCT043=

25.03.2017 - 08:00 UTC

TAF LZSL 250800Z 2509/2518 VRB02KT 9999 SCT045
    BECMG 2509/2511 16005KT
    BECMG 2513/2515 31008KT CAVOK=
TAF LZPP 250800Z 2509/2518 02006KT 9999 SCT040
    TEMPO 2512/2515 33010KT=
TAF LZZI 250800Z 2509/2518 VRB02KT CAVOK
    BECMG 2509/2511 03008KT 9999 FEW045=

25.03.2017 - 05:00 UTC

TAF LZIB 250500Z 2506/2606 32006KT 9999 BKN035
    TEMPO 2506/2514 03008KT
    BECMG 2510/2512 CAVOK
    BECMG 2523/2601 36012KT=
TAF LZKZ 250500Z 2506/2606 02014KT CAVOK
    TEMPO 2514/2519 35008KT
    TEMPO 2523/2606 01015G28KT 9999 FEW040 SCT080=
TAF LZTT 250500Z 2506/2606 27006KT 9999 FEW035
    TEMPO 2508/2515 13010KT CAVOK
    BECMG 2600/2602 05012KT=

25.03.2017 - 05:00 UTC

TAF LZSL 250500Z 2506/2515 VRB02KT 9999 SCT045
    BECMG 2507/2509 16006KT
    BECMG 2513/2515 31010KT CAVOK=
TAF LZPP 250500Z 2506/2515 02010KT 9999 BKN035
    BECMG 2509/2511 35006KT CAVOK
    TEMPO 2512/2515 33010KT=
TAF LZZI 250500Z 2506/2515 VRB02KT CAVOK
    BECMG 2508/2510 03008KT 9999 FEW045=

25.03.2017 - 02:00 UTC

TAF LZSL 250200Z 2503/2512 VRB02KT 9999 BKN045
    BECMG 2508/2510 18006KT FEW050=
TAF LZZI 250200Z 2503/2512 09004KT CAVOK
    BECMG 2508/2510 03008KT 9999 FEW035=

skok na menu ↑


skok na začiatok stránky ↑